Price, North Dakota
Current Conditions -  °F | °C
As of 12:15 PM on Thursday 30 Oct 2014 (Local Time) from KHZE Reporting Station
Overcast Overcast  
Wind Chill: 27°   Ceiling: 1100
Heat Index: 36°   Visibility: 10mi
Dew Point: 32°   Wind: 13mph
Humidity: 87%   Direction: 10°N
Pressure: 30.41"   Gusts: NA
Location:  47.1146°N, 101.343°W
Report Text: KHZE 301715Z AUTO 01011KT 10SM OVC011 02/00 A3041 RMK AO2
Loading
Personal Weather Stations






























Interactive Weather Map
Tropical Storm Tracking
New forecast layout! Learn more

10-Day Weather Forecast

Advertisements
Track Severe Weather on mobile